createdAt,value
2023-05-24T00:01:25.719Z,100102.84
2023-05-24T00:03:59.553Z,100104.75
2023-05-24T00:06:28.500Z,100099.53
2023-05-24T00:08:57.539Z,100095.60
2023-05-24T00:11:27.592Z,100094.13
2023-05-24T00:13:58.929Z,100097.05
2023-05-24T00:16:28.137Z,100094.02
2023-05-24T00:19:01.645Z,100092.44
2023-05-24T00:21:31.640Z,100088.46
2023-05-24T00:24:00.450Z,100085.14
2023-05-24T00:26:29.079Z,100088.29
2023-05-24T00:28:58.232Z,100086.39
2023-05-24T00:31:34.393Z,100084.06
2023-05-24T00:34:05.389Z,100084.82
2023-05-24T00:36:39.041Z,100083.23
2023-05-24T00:39:09.211Z,100082.54
2023-05-24T00:41:37.803Z,100082.70
2023-05-24T00:44:06.490Z,100084.35
2023-05-24T00:46:36.421Z,100082.67
2023-05-24T00:49:05.645Z,100084.02
2023-05-24T00:51:41.248Z,100083.52
2023-05-24T00:54:15.567Z,100079.92
2023-05-24T00:56:45.125Z,100083.20
2023-05-24T00:59:14.748Z,100079.40
2023-05-24T01:01:50.809Z,100077.45
2023-05-24T01:04:22.537Z,100078.04
2023-05-24T01:07:05.157Z,100077.50
2023-05-24T01:09:50.949Z,100082.18
2023-05-24T01:12:46.673Z,100079.36
2023-05-24T01:15:25.481Z,100076.02
2023-05-24T01:18:11.406Z,100076.22
2023-05-24T01:20:41.682Z,100082.46
2023-05-24T01:23:39.549Z,100080.84
2023-05-24T01:26:20.828Z,100081.27
2023-05-24T01:28:50.864Z,100081.98
2023-05-24T01:31:24.954Z,100082.99
2023-05-24T01:33:53.974Z,100082.25
2023-05-24T01:36:26.378Z,100082.46
2023-05-24T01:38:55.615Z,100084.16
2023-05-24T01:41:41.249Z,100088.87
2023-05-24T01:44:19.237Z,100088.42
2023-05-24T01:46:50.135Z,100087.95
2023-05-24T01:49:26.115Z,100086.46
2023-05-24T01:52:00.054Z,100085.71
2023-05-24T01:54:33.142Z,100087.33
2023-05-24T01:57:07.620Z,100087.38
2023-05-24T01:59:39.750Z,100089.23
2023-05-24T02:02:09.142Z,100087.95
2023-05-24T02:04:39.120Z,100086.33
2023-05-24T02:07:11.203Z,100085.05
2023-05-24T02:09:39.893Z,100087.92
2023-05-24T02:12:11.478Z,100085.95
2023-05-24T02:14:44.549Z,100085.90
2023-05-24T02:17:18.864Z,100088.43
2023-05-24T02:19:47.654Z,100083.90
2023-05-24T02:22:16.606Z,100086.92
2023-05-24T02:24:49.409Z,100086.98
2023-05-24T02:27:20.856Z,100089.64
2023-05-24T02:29:49.659Z,100087.85
2023-05-24T02:32:19.702Z,100084.77
2023-05-24T02:34:48.570Z,100085.29
2023-05-24T02:37:18.352Z,100086.65
2023-05-24T02:39:47.181Z,100086.69
2023-05-24T02:42:19.825Z,100090.60
2023-05-24T02:44:51.786Z,100086.06
2023-05-24T02:47:21.115Z,100084.65
2023-05-24T02:49:51.215Z,100085.94
2023-05-24T02:52:22.784Z,100088.48
2023-05-24T02:54:54.458Z,100090.39
2023-05-24T02:57:23.752Z,100086.77
2023-05-24T02:59:52.806Z,100090.86
2023-05-24T03:02:21.847Z,100092.55
2023-05-24T03:04:53.398Z,100090.37
2023-05-24T03:07:22.460Z,100097.34
2023-05-24T03:09:51.361Z,100098.41
2023-05-24T03:12:20.785Z,100099.33
2023-05-24T03:14:50.059Z,100098.24
2023-05-24T03:17:21.503Z,100100.03
2023-05-24T03:19:52.088Z,100100.50
2023-05-24T03:22:20.880Z,100105.54
2023-05-24T03:24:49.640Z,100108.52
2023-05-24T03:27:21.557Z,100108.61
2023-05-24T03:29:50.736Z,100109.35
2023-05-24T03:32:21.006Z,100111.56
2023-05-24T03:34:49.518Z,100111.27
2023-05-24T03:37:19.068Z,100110.13
2023-05-24T03:39:48.343Z,100109.82
2023-05-24T03:42:58.963Z,100108.98
2023-05-24T03:46:01.300Z,100111.76
2023-05-24T03:48:30.510Z,100110.98
2023-05-24T03:51:00.914Z,100116.61
2023-05-24T03:53:29.678Z,100119.63
2023-05-24T03:55:58.338Z,100123.23
2023-05-24T03:58:27.032Z,100121.23
2023-05-24T04:01:00.638Z,100126.20
2023-05-24T04:03:33.503Z,100130.40
2023-05-24T04:06:02.105Z,100131.91
2023-05-24T04:08:31.426Z,100133.08
2023-05-24T04:10:59.922Z,100130.88
2023-05-24T04:13:28.991Z,100131.20
2023-05-24T04:16:00.879Z,100133.65
2023-05-24T04:18:30.073Z,100138.71
2023-05-24T04:20:58.952Z,100142.21
2023-05-24T04:23:27.645Z,100141.98
2023-05-24T04:25:56.477Z,100147.80
2023-05-24T04:28:25.653Z,100152.56
2023-05-24T04:31:00.190Z,100152.48
2023-05-24T04:33:28.868Z,100152.79
2023-05-24T04:36:00.593Z,100150.30
2023-05-24T04:38:32.274Z,100159.67
2023-05-24T04:41:00.834Z,100157.44
2023-05-24T04:43:30.949Z,100162.10
2023-05-24T04:45:59.659Z,100162.38
2023-05-24T04:48:29.365Z,100160.44
2023-05-24T04:50:58.486Z,100157.45
2023-05-24T04:53:27.283Z,100161.28
2023-05-24T04:55:56.049Z,100162.09
2023-05-24T04:58:25.187Z,100162.42
2023-05-24T05:01:01.557Z,100162.38
2023-05-24T05:03:30.271Z,100167.63
2023-05-24T05:05:59.219Z,100163.88
2023-05-24T05:08:27.917Z,100162.06
2023-05-24T05:10:57.145Z,100168.48
2023-05-24T05:13:25.959Z,100172.09
2023-05-24T05:15:59.874Z,100175.64
2023-05-24T05:18:28.428Z,100180.45
2023-05-24T05:20:57.931Z,100179.06
2023-05-24T05:23:27.031Z,100182.16
2023-05-24T05:25:58.757Z,100182.66
2023-05-24T05:28:27.766Z,100185.27
2023-05-24T05:31:00.645Z,100186.97
2023-05-24T05:33:31.959Z,100188.26
2023-05-24T05:36:00.693Z,100187.45
2023-05-24T05:38:30.638Z,100191.80
2023-05-24T05:40:59.208Z,100194.04
2023-05-24T05:43:28.712Z,100193.05
2023-05-24T05:46:01.911Z,100191.78
2023-05-24T05:48:30.742Z,100189.89
2023-05-24T05:50:59.365Z,100190.83
2023-05-24T05:53:28.218Z,100196.14
2023-05-24T05:55:58.250Z,100195.43
2023-05-24T05:58:27.019Z,100195.56
2023-05-24T06:01:03.308Z,100198.48
2023-05-24T06:03:33.413Z,100204.73
2023-05-24T06:06:02.434Z,100210.02
2023-05-24T06:08:34.418Z,100214.17
2023-05-24T06:11:03.159Z,100218.20
2023-05-24T06:13:32.520Z,100221.66
2023-05-24T06:16:01.363Z,100219.29
2023-05-24T06:18:32.113Z,100219.42
2023-05-24T06:21:00.714Z,100219.16
2023-05-24T06:23:29.406Z,100226.80
2023-05-24T06:25:58.414Z,100229.43
2023-05-24T06:28:27.668Z,100237.14
2023-05-24T06:31:00.528Z,100236.98
2023-05-24T06:33:31.124Z,100242.06
2023-05-24T06:35:59.674Z,100247.98
2023-05-24T06:38:28.759Z,100247.41
2023-05-24T06:40:57.748Z,100251.48
2023-05-24T06:43:27.563Z,100256.73
2023-05-24T06:46:03.337Z,100263.02
2023-05-24T06:48:32.071Z,100261.05
2023-05-24T06:51:01.054Z,100262.73
2023-05-24T06:53:30.179Z,100263.71
2023-05-24T06:55:59.253Z,100265.90
2023-05-24T06:58:28.126Z,100265.27
2023-05-24T07:01:00.087Z,100268.48
2023-05-24T07:03:30.393Z,100269.98
2023-05-24T07:05:59.226Z,100270.89
2023-05-24T07:08:30.180Z,100272.10
2023-05-24T07:10:58.992Z,100272.01
2023-05-24T07:13:27.859Z,100276.94
2023-05-24T07:16:04.466Z,100275.52
2023-05-24T07:18:33.117Z,100275.86
2023-05-24T07:21:02.137Z,100280.55
2023-05-24T07:23:31.882Z,100291.66
2023-05-24T07:26:00.791Z,100297.13
2023-05-24T07:28:29.815Z,100299.27
2023-05-24T07:31:02.130Z,100302.66
2023-05-24T07:33:33.427Z,100304.80
2023-05-24T07:36:02.975Z,100304.42
2023-05-24T07:38:31.754Z,100305.39
2023-05-24T07:41:02.811Z,100306.54
2023-05-24T07:43:31.787Z,100306.38
2023-05-24T07:46:03.196Z,100305.48
2023-05-24T07:48:32.152Z,100311.36
2023-05-24T07:51:00.855Z,100314.63
2023-05-24T07:53:29.859Z,100314.63
2023-05-24T07:55:58.441Z,100320.82
2023-05-24T07:58:27.297Z,100324.14
2023-05-24T08:01:02.471Z,100329.69
2023-05-24T08:03:31.915Z,100332.61
2023-05-24T08:06:01.453Z,100333.14
2023-05-24T08:08:30.120Z,100334.09
2023-05-24T08:10:58.817Z,100334.35
2023-05-24T08:13:27.849Z,100332.27
2023-05-24T08:16:02.381Z,100333.89
2023-05-24T08:18:31.080Z,100338.58
2023-05-24T08:20:59.639Z,100337.80
2023-05-24T08:23:29.412Z,100338.90
2023-05-24T08:25:58.360Z,100340.34
2023-05-24T08:28:27.792Z,100343.90
2023-05-24T08:31:02.021Z,100343.95
2023-05-24T08:33:30.884Z,100347.16
2023-05-24T08:35:59.634Z,100350.94
2023-05-24T08:38:29.488Z,100349.88
2023-05-24T08:40:58.174Z,100348.02
2023-05-24T08:43:30.106Z,100352.13
2023-05-24T08:46:04.094Z,100354.17
2023-05-24T08:48:41.938Z,100354.64
2023-05-24T08:51:09.869Z,100355.57
2023-05-24T08:53:41.572Z,100357.02
2023-05-24T08:56:10.734Z,100359.64
2023-05-24T08:58:39.558Z,100359.54
2023-05-24T09:01:08.899Z,100360.92
2023-05-24T09:03:40.321Z,100365.14
2023-05-24T09:06:11.663Z,100366.05
2023-05-24T09:08:43.862Z,100365.05
2023-05-24T09:11:16.374Z,100367.91
2023-05-24T09:13:47.902Z,100376.98
2023-05-24T09:16:17.007Z,100378.09
2023-05-24T09:18:46.058Z,100381.08
2023-05-24T09:21:14.749Z,100382.20
2023-05-24T09:23:44.685Z,100383.02
2023-05-24T09:26:13.973Z,100384.70
2023-05-24T09:28:43.705Z,100384.40
2023-05-24T09:31:13.264Z,100391.79
2023-05-24T09:33:42.271Z,100392.30
2023-05-24T09:36:12.156Z,100393.35
2023-05-24T09:38:41.712Z,100396.70
2023-05-24T09:41:10.803Z,100401.33
2023-05-24T09:43:49.307Z,100401.45
2023-05-24T09:46:22.580Z,100401.95
2023-05-24T09:48:58.745Z,100406.15
2023-05-24T09:51:27.451Z,100403.76
2023-05-24T09:54:00.725Z,100403.46
2023-05-24T09:56:30.466Z,100404.07
2023-05-24T09:59:05.130Z,100406.02
2023-05-24T10:01:35.369Z,100406.23
2023-05-24T10:04:09.293Z,100402.15
2023-05-24T10:06:39.556Z,100406.41
2023-05-24T10:09:11.017Z,100406.55
2023-05-24T10:11:41.231Z,100410.42
2023-05-24T10:14:10.973Z,100408.91
2023-05-24T10:16:40.246Z,100412.71
2023-05-24T10:19:09.554Z,100409.84
2023-05-24T10:21:41.514Z,100413.20
2023-05-24T10:24:12.598Z,100417.73
2023-05-24T10:26:42.377Z,100414.06
2023-05-24T10:29:24.967Z,100414.80
2023-05-24T10:31:54.843Z,100415.41
2023-05-24T10:34:25.142Z,100411.00
2023-05-24T10:36:54.143Z,100411.59
2023-05-24T10:39:25.104Z,100415.50
2023-05-24T10:41:56.870Z,100415.15
2023-05-24T10:44:30.175Z,100420.34
2023-05-24T10:47:12.456Z,100418.94
2023-05-24T10:49:50.746Z,100418.31
2023-05-24T10:52:20.989Z,100419.41
2023-05-24T10:55:08.977Z,100419.00
2023-05-24T10:57:37.773Z,100419.23
2023-05-24T11:03:04.259Z,100426.08
2023-05-24T11:05:36.341Z,100431.52
2023-05-24T11:08:08.897Z,100434.41
2023-05-24T11:10:38.273Z,100428.64
2023-05-24T11:13:08.993Z,100431.61
2023-05-24T11:15:37.940Z,100433.59
2023-05-24T11:18:16.800Z,100432.77
2023-05-24T11:20:46.374Z,100431.38
2023-05-24T11:23:17.317Z,100434.02
2023-05-24T11:25:47.606Z,100435.54
2023-05-24T11:28:16.986Z,100433.81
2023-05-24T11:30:47.381Z,100427.91
2023-05-24T11:33:18.107Z,100427.72
2023-05-24T11:35:49.969Z,100427.17
2023-05-24T11:38:22.197Z,100427.14
2023-05-24T11:40:53.148Z,100427.48
2023-05-24T11:43:23.182Z,100424.77
2023-05-24T11:45:52.961Z,100423.28
2023-05-24T11:48:24.830Z,100422.65
2023-05-24T11:50:55.657Z,100419.73
2023-05-24T11:53:24.803Z,100419.63
2023-05-24T11:55:57.234Z,100415.13
2023-05-24T11:58:34.517Z,100415.53
2023-05-24T12:01:03.555Z,100414.63
2023-05-24T12:03:33.316Z,100412.20
2023-05-24T12:06:02.339Z,100414.20
2023-05-24T12:08:31.703Z,100416.74
2023-05-24T12:11:02.308Z,100415.98
2023-05-24T12:13:30.945Z,100415.98
2023-05-24T12:16:02.664Z,100416.06
2023-05-24T12:18:31.635Z,100411.33
2023-05-24T12:21:00.290Z,100410.23
2023-05-24T12:23:31.531Z,100412.64
2023-05-24T12:26:00.585Z,100413.83
2023-05-24T12:28:35.612Z,100414.88
2023-05-24T12:31:06.685Z,100412.15
2023-05-24T12:33:35.635Z,100411.64
2023-05-24T12:36:04.932Z,100409.10
2023-05-24T12:38:33.415Z,100409.54
2023-05-24T12:43:33.673Z,100406.39
2023-05-24T12:46:02.820Z,100405.12
2023-05-24T12:48:31.431Z,100405.98
2023-05-24T12:51:00.169Z,100411.77
2023-05-24T12:53:29.083Z,100411.79
2023-05-24T12:55:59.822Z,100411.48
2023-05-24T12:58:28.615Z,100416.92
2023-05-24T13:01:00.357Z,100414.08
2023-05-24T13:03:28.967Z,100415.73
2023-05-24T13:05:59.362Z,100416.28
2023-05-24T13:08:29.000Z,100412.51
2023-05-24T13:10:57.573Z,100413.77
2023-05-24T13:13:28.025Z,100412.21
2023-05-24T13:16:05.092Z,100406.91
2023-05-24T13:18:33.157Z,100406.58
2023-05-24T13:21:04.862Z,100408.67
2023-05-24T13:23:35.693Z,100409.23
2023-05-24T13:26:06.462Z,100405.45
2023-05-24T13:28:35.907Z,100406.21
2023-05-24T13:31:05.759Z,100407.08
2023-05-24T13:33:34.712Z,100406.75
2023-05-24T13:36:03.312Z,100407.15
2023-05-24T13:38:31.809Z,100410.36
2023-05-24T13:41:00.720Z,100409.77
2023-05-24T13:43:29.447Z,100408.45
2023-05-24T13:45:59.861Z,100410.60
2023-05-24T13:48:28.752Z,100410.05
2023-05-24T13:50:57.560Z,100418.46
2023-05-24T13:53:27.642Z,100420.06
2023-05-24T13:55:57.186Z,100421.44
2023-05-24T13:58:26.290Z,100418.24
2023-05-24T14:01:03.096Z,100420.55
2023-05-24T14:03:31.718Z,100419.73
2023-05-24T14:06:01.080Z,100422.09
2023-05-24T14:08:29.722Z,100427.30
2023-05-24T14:10:58.404Z,100429.23
2023-05-24T14:14:16.665Z,100432.33
2023-05-24T14:16:16.125Z,100434.38
2023-05-24T14:18:45.205Z,100432.65
2023-05-24T14:21:13.858Z,100439.02
2023-05-24T14:23:42.447Z,100437.82
2023-05-24T14:26:11.153Z,100437.09
2023-05-24T14:28:39.812Z,100432.78
2023-05-24T14:31:08.411Z,100431.17
2023-05-24T14:33:37.956Z,100429.24
2023-05-24T14:36:08.125Z,100433.36
2023-05-24T14:38:36.655Z,100441.50
2023-05-24T14:41:06.121Z,100445.72
2023-05-24T14:43:36.049Z,100447.36
2023-05-24T14:46:05.753Z,100451.27
2023-05-24T14:48:34.824Z,100447.64
2023-05-24T14:51:03.532Z,100448.88
2023-05-24T14:53:32.242Z,100447.60
2023-05-24T14:56:03.281Z,100449.79
2023-05-24T14:58:31.870Z,100443.61
2023-05-24T15:01:02.284Z,100449.05
2023-05-24T15:03:31.206Z,100453.02
2023-05-24T15:06:01.293Z,100461.17
2023-05-24T15:08:30.234Z,100468.58
2023-05-24T15:11:00.968Z,100473.89
2023-05-24T15:13:30.622Z,100475.33
2023-05-24T15:16:01.156Z,100468.02
2023-05-24T15:18:31.535Z,100465.33
2023-05-24T15:21:04.569Z,100472.34
2023-05-24T15:23:33.317Z,100467.65
2023-05-24T15:26:02.146Z,100469.57
2023-05-24T15:28:30.685Z,100465.51
2023-05-24T15:31:03.197Z,100469.47
2023-05-24T15:33:32.504Z,100475.45
2023-05-24T15:36:01.266Z,100483.78
2023-05-24T15:38:29.797Z,100487.73
2023-05-24T15:40:59.392Z,100490.77
2023-05-24T15:43:29.444Z,100499.92
2023-05-24T15:46:01.376Z,100502.31
2023-05-24T15:48:30.353Z,100504.06
2023-05-24T15:51:53.816Z,100514.40
2023-05-24T15:53:48.941Z,100516.13
2023-05-24T15:56:17.614Z,100527.67
2023-05-24T15:58:46.212Z,100537.02
2023-05-24T16:01:16.316Z,100544.00
2023-05-24T16:03:45.290Z,100548.59
2023-05-24T16:06:14.107Z,100548.70
2023-05-24T16:08:43.375Z,100553.81
2023-05-24T16:11:12.866Z,100554.34
2023-05-24T16:13:41.506Z,100559.58
2023-05-24T16:16:10.691Z,100559.80
2023-05-24T16:18:39.894Z,100562.00
2023-05-24T16:21:11.292Z,100563.29
2023-05-24T16:23:40.754Z,100563.85
2023-05-24T16:26:10.159Z,100565.90
2023-05-24T16:28:38.937Z,100565.61
2023-05-24T16:31:07.821Z,100568.85
2023-05-24T16:33:36.989Z,100575.98
2023-05-24T16:36:06.092Z,100579.27
2023-05-24T16:38:35.056Z,100578.91
2023-05-24T16:41:05.518Z,100578.33
2023-05-24T16:43:34.398Z,100575.64
2023-05-24T16:46:03.357Z,100586.58
2023-05-24T16:48:32.071Z,100593.66
2023-05-24T16:51:01.716Z,100593.88
2023-05-24T16:53:33.055Z,100594.70
2023-05-24T16:56:03.470Z,100589.76
2023-05-24T16:58:32.108Z,100592.46
2023-05-24T17:01:01.278Z,100594.50
2023-05-24T17:03:32.328Z,100594.78
2023-05-24T17:06:03.911Z,100593.85
2023-05-24T17:08:34.614Z,100597.02
2023-05-24T17:11:03.753Z,100600.13
2023-05-24T17:13:32.691Z,100600.01
2023-05-24T17:16:04.205Z,100595.57
2023-05-24T17:18:33.048Z,100596.08
2023-05-24T17:21:05.482Z,100600.41
2023-05-24T17:23:36.851Z,100601.33
2023-05-24T17:26:08.346Z,100602.50
2023-05-24T17:28:37.128Z,100604.52
2023-05-24T17:31:08.465Z,100606.60
2023-05-24T17:33:37.252Z,100604.35
2023-05-24T17:36:06.259Z,100605.59
2023-05-24T17:38:37.145Z,100607.01
2023-05-24T17:41:08.709Z,100604.98
2023-05-24T17:43:39.437Z,100605.11
2023-05-24T17:46:09.341Z,100607.43
2023-05-24T17:48:39.975Z,100611.30
2023-05-24T17:51:10.034Z,100614.31
2023-05-24T17:53:43.041Z,100611.36
2023-05-24T17:56:14.060Z,100614.26
2023-05-24T17:58:45.518Z,100615.48
2023-05-24T18:01:16.993Z,100616.32
2023-05-24T18:03:45.877Z,100621.22
2023-05-24T18:06:14.963Z,100627.23
2023-05-24T18:08:44.727Z,100628.16
2023-05-24T18:11:15.114Z,100632.94
2023-05-24T18:13:46.419Z,100641.16
2023-05-24T18:16:16.381Z,100645.66
2023-05-24T18:18:46.145Z,100646.13
2023-05-24T18:21:15.881Z,100653.89
2023-05-24T18:23:46.025Z,100654.92
2023-05-24T18:26:15.693Z,100655.50
2023-05-24T18:28:45.592Z,100658.39
2023-05-24T18:31:20.007Z,100662.05
2023-05-24T18:33:49.907Z,100665.73
2023-05-24T18:36:18.652Z,100671.78
2023-05-24T18:38:47.332Z,100676.52
2023-05-24T18:41:16.836Z,100679.21
2023-05-24T18:43:46.625Z,100683.48
2023-05-24T18:46:16.712Z,100688.06
2023-05-24T18:48:45.860Z,100692.75
2023-05-24T18:51:16.369Z,100699.53
2023-05-24T18:53:45.058Z,100704.64
2023-05-24T18:56:14.392Z,100706.19
2023-05-24T18:58:45.774Z,100706.05
2023-05-24T19:01:18.734Z,100707.05
2023-05-24T19:03:48.527Z,100707.50
2023-05-24T19:06:17.594Z,100710.88
2023-05-24T19:08:46.419Z,100712.70
2023-05-24T19:11:16.126Z,100715.69
2023-05-24T19:13:44.927Z,100718.80
2023-05-24T19:16:16.862Z,100724.34
2023-05-24T19:18:45.842Z,100723.26
2023-05-24T19:21:14.981Z,100725.59
2023-05-24T19:23:45.800Z,100729.16
2023-05-24T19:26:17.464Z,100730.34
2023-05-24T19:28:50.052Z,100728.98
2023-05-24T19:31:19.924Z,100732.26
2023-05-24T19:34:00.041Z,100734.81
2023-05-24T19:36:32.359Z,100738.25
2023-05-24T19:39:01.356Z,100742.03
2023-05-24T19:41:30.563Z,100746.63
2023-05-24T19:44:00.287Z,100751.53
2023-05-24T19:46:30.035Z,100749.80
2023-05-24T19:48:58.968Z,100748.71
2023-05-24T19:51:28.098Z,100750.67
2023-05-24T19:53:57.600Z,100748.30
2023-05-24T19:56:28.819Z,100751.27
2023-05-24T19:59:00.891Z,100753.65
2023-05-24T20:01:30.226Z,100756.42
2023-05-24T20:03:59.392Z,100755.02
2023-05-24T20:06:29.128Z,100756.29
2023-05-24T20:08:59.266Z,100754.74
2023-05-24T20:11:29.379Z,100760.02
2023-05-24T20:13:58.521Z,100760.89
2023-05-24T20:16:29.428Z,100759.55
2023-05-24T20:18:58.375Z,100759.23
2023-05-24T20:21:27.926Z,100756.63
2023-05-24T20:23:58.817Z,100760.08
2023-05-24T20:26:52.705Z,100757.23
2023-05-24T20:29:26.623Z,100757.62
2023-05-24T20:31:56.023Z,100756.02
2023-05-24T20:34:25.702Z,100752.91
2023-05-24T20:36:54.861Z,100753.77
2023-05-24T20:39:27.614Z,100752.56
2023-05-24T20:41:58.560Z,100753.13
2023-05-24T20:44:27.659Z,100758.35
2023-05-24T20:47:00.407Z,100763.39
2023-05-24T20:49:29.325Z,100769.35
2023-05-24T20:52:02.331Z,100770.73
2023-05-24T20:54:31.698Z,100764.48
2023-05-24T20:57:01.819Z,100761.02
2023-05-24T20:59:36.645Z,100765.20
2023-05-24T21:02:06.829Z,100763.14
2023-05-24T21:04:39.334Z,100767.60
2023-05-24T21:07:08.687Z,100764.88
2023-05-24T21:09:40.325Z,100768.77
2023-05-24T21:12:09.392Z,100768.81
2023-05-24T21:14:41.146Z,100770.82
2023-05-24T21:17:09.946Z,100774.21
2023-05-24T21:19:39.130Z,100776.11
2023-05-24T21:22:08.020Z,100780.21
2023-05-24T21:24:36.766Z,100784.14
2023-05-24T21:27:07.337Z,100783.98
2023-05-24T21:29:37.458Z,100785.66
2023-05-24T21:32:07.103Z,100788.32
2023-05-24T21:34:36.202Z,100791.59
2023-05-24T21:37:06.627Z,100793.94
2023-05-24T21:39:35.284Z,100794.04
2023-05-24T21:42:04.721Z,100794.70
2023-05-24T21:44:34.185Z,100793.29
2023-05-24T21:47:03.670Z,100786.52
2023-05-24T21:49:32.640Z,100787.00
2023-05-24T21:52:02.400Z,100784.83
2023-05-24T21:54:31.051Z,100786.65
2023-05-24T21:57:00.931Z,100792.30
2023-05-24T21:59:29.741Z,100792.15
2023-05-24T22:01:58.950Z,100797.96
2023-05-24T22:04:27.805Z,100797.85
2023-05-24T22:06:57.001Z,100802.36
2023-05-24T22:09:25.818Z,100798.18
2023-05-24T22:11:54.636Z,100793.50
2023-05-24T22:14:26.536Z,100797.86
2023-05-24T22:16:55.456Z,100798.27
2023-05-24T22:19:39.531Z,100801.27
2023-05-24T22:22:09.907Z,100804.45
2023-05-24T22:24:38.625Z,100807.73
2023-05-24T22:27:09.095Z,100809.20
2023-05-24T22:29:37.893Z,100810.67
2023-05-24T22:32:08.321Z,100812.73
2023-05-24T22:34:37.165Z,100815.05
2023-05-24T22:37:06.632Z,100815.09
2023-05-24T22:39:35.302Z,100812.61
2023-05-24T22:42:05.336Z,100812.42
2023-05-24T22:44:33.961Z,100814.29
2023-05-24T22:47:02.905Z,100818.44
2023-05-24T22:49:34.436Z,100819.91
2023-05-24T22:52:05.326Z,100816.30
2023-05-24T22:54:36.781Z,100814.23
2023-05-24T22:57:08.947Z,100817.52
2023-05-24T22:59:37.583Z,100820.11
2023-05-24T23:02:09.344Z,100814.88
2023-05-24T23:04:38.050Z,100810.69
2023-05-24T23:07:07.892Z,100806.22
2023-05-24T23:09:36.635Z,100802.73
2023-05-24T23:12:08.201Z,100809.37
2023-05-24T23:14:42.308Z,100810.45
2023-05-24T23:17:13.695Z,100816.78
2023-05-24T23:19:45.119Z,100821.41
2023-05-24T23:22:17.670Z,100822.05
2023-05-24T23:24:50.360Z,100825.58
2023-05-24T23:27:20.282Z,100828.92
2023-05-24T23:29:51.568Z,100826.13
2023-05-24T23:32:20.969Z,100826.64
2023-05-24T23:34:50.552Z,100825.30
2023-05-24T23:37:19.550Z,100828.98
2023-05-24T23:39:48.326Z,100829.55
2023-05-24T23:42:17.198Z,100831.80
2023-05-24T23:44:45.919Z,100833.70
2023-05-24T23:47:14.711Z,100839.41
2023-05-24T23:49:44.267Z,100841.58
2023-05-24T23:52:15.467Z,100842.15
2023-05-24T23:54:44.071Z,100848.60
2023-05-24T23:57:14.602Z,100848.20
2023-05-24T23:59:43.197Z,100850.34
